Time;durP1;ratioP1;P1;durP2;ratioP2;P2;SDS_P1;SDS_P2;PMS_P1;PMS_P2;Temp;Humidity;BMP_temperature;BMP_pressure;BME280_temperature;BME280_humidity;BME280_pressure;Samples;Min_cycle;Max_cycle;Signal;HPM_P1;HPM_P2
2023/06/30 00:01:56;;;;;;;9.90;5.82;;;;;;;;;;6308940;28;20044;-82
2023/06/30 00:04:57;;;;;;;11.27;6.63;;;;;;;;;;6310002;27;20040;-81
2023/06/30 00:07:59;;;;;;;10.02;6.70;;;;;;;;;;6302208;28;20052;-80
2023/06/30 00:11:01;;;;;;;8.30;6.43;;;;;;;;;;6314767;28;20712;-80
2023/06/30 00:14:03;;;;;;;9.50;6.80;;;;;;;;;;6307263;28;20048;-80
2023/06/30 00:17:04;;;;;;;9.75;7.28;;;;;;;;;;6306663;28;20048;-81
2023/06/30 00:20:07;;;;;;;11.60;8.68;;;;;;;;;;6296641;28;20078;-82
2023/06/30 00:23:10;;;;;;;10.15;8.05;;;;;;;;;;6311611;28;20448;-82
2023/06/30 00:26:11;;;;;;;11.98;8.52;;;;;;;;;;6303589;28;20109;-80
2023/06/30 00:29:13;;;;;;;11.55;8.35;;;;;;;;;;6304906;28;20052;-80
2023/06/30 00:32:15;;;;;;;10.18;7.32;;;;;;;;;;6313011;28;20583;-81
2023/06/30 00:35:18;;;;;;;12.68;8.50;;;;;;;;;;6311384;28;20040;-81
2023/06/30 00:38:19;;;;;;;9.85;8.15;;;;;;;;;;6315575;28;20051;-81
2023/06/30 00:41:22;;;;;;;;;;;;;;;;;;6315245;28;20572;-81
2023/06/30 00:44:24;;;;;;;11.07;7.63;;;;;;;;;;6321055;28;19927;-82
2023/06/30 00:47:26;;;;;;;11.60;7.72;;;;;;;;;;6305872;28;20118;-80
2023/06/30 00:50:28;;;;;;;11.00;8.60;;;;;;;;;;6311782;28;20044;-81
2023/06/30 00:53:32;;;;;;;11.57;8.10;;;;;;;;;;6319315;28;20040;-80
2023/06/30 00:56:34;;;;;;;11.45;8.48;;;;;;;;;;6309597;28;20502;-81
2023/06/30 00:59:36;;;;;;;12.98;9.00;;;;;;;;;;6310771;28;20525;-80
2023/06/30 01:02:48;;;;;;;12.02;8.25;;;;;;;;;;6304740;28;20045;-81
2023/06/30 01:06:00;;;;;;;13.20;9.38;;;;;;;;;;6304060;28;20040;-81
2023/06/30 01:09:09;;;;;;;11.93;8.07;;;;;;;;;;6324116;28;20044;-80
2023/06/30 01:12:11;;;;;;;9.57;7.80;;;;;;;;;;6308796;28;20439;-79
2023/06/30 01:15:14;;;;;;;12.40;8.52;;;;;;;;;;6304232;28;20048;-78
2023/06/30 01:18:19;;;;;;;10.70;8.48;;;;;;;;;;6323222;28;20044;-79
2023/06/30 01:21:22;;;;;;;12.48;8.40;;;;;;;;;;6309538;28;20403;-80
2023/06/30 01:24:27;;;;;;;16.88;8.68;;;;;;;;;;6337902;27;20417;-81
2023/06/30 01:27:30;;;;;;;11.32;8.93;;;;;;;;;;6305797;28;20044;-80
2023/06/30 01:30:32;;;;;;;13.73;9.65;;;;;;;;;;6308990;28;20036;-80
2023/06/30 01:33:36;;;;;;;12.80;9.52;;;;;;;;;;6311443;28;20119;-82
2023/06/30 01:36:39;;;;;;;14.27;8.63;;;;;;;;;;6309376;28;20047;-80
2023/06/30 01:39:41;;;;;;;14.48;10.20;;;;;;;;;;6308020;28;20048;-80
2023/06/30 01:42:43;;;;;;;16.02;9.98;;;;;;;;;;6312193;28;20051;-79
2023/06/30 01:45:45;;;;;;;13.33;10.30;;;;;;;;;;6285116;28;20469;-80
2023/06/30 01:48:49;;;;;;;15.82;10.63;;;;;;;;;;6295031;28;20048;-80
2023/06/30 01:51:50;;;;;;;19.00;11.15;;;;;;;;;;6303431;28;20045;-80
2023/06/30 01:54:52;;;;;;;18.83;10.70;;;;;;;;;;6290938;28;20079;-81
2023/06/30 01:57:54;;;;;;;14.10;11.02;;;;;;;;;;6264821;28;20883;-80
2023/06/30 02:00:56;;;;;;;13.18;10.57;;;;;;;;;;6289306;28;20037;-80
2023/06/30 02:03:57;;;;;;;13.73;10.57;;;;;;;;;;6302673;28;20041;-79
2023/06/30 02:06:59;;;;;;;14.50;11.23;;;;;;;;;;6275670;28;20069;-79
2023/06/30 02:10:01;;;;;;;15.70;10.85;;;;;;;;;;6292265;28;20997;-81
2023/06/30 02:13:03;;;;;;;15.07;11.77;;;;;;;;;;6300860;28;20781;-80
2023/06/30 02:16:05;;;;;;;15.73;10.88;;;;;;;;;;6303138;28;20204;-79
2023/06/30 02:19:06;;;;;;;17.08;12.35;;;;;;;;;;6303966;28;20044;-79
2023/06/30 02:22:08;;;;;;;17.77;12.77;;;;;;;;;;6295838;28;20068;-80
2023/06/30 02:25:10;;;;;;;14.80;11.60;;;;;;;;;;6298890;28;20398;-80
2023/06/30 02:28:12;;;;;;;14.57;11.63;;;;;;;;;;6284530;28;20048;-80
2023/06/30 02:31:14;;;;;;;15.27;12.65;;;;;;;;;;6300463;28;20102;-79
2023/06/30 02:34:16;;;;;;;15.82;12.13;;;;;;;;;;6301668;28;20059;-80
2023/06/30 02:37:17;;;;;;;18.55;13.02;;;;;;;;;;6302225;28;20040;-80
2023/06/30 02:40:19;;;;;;;16.08;12.68;;;;;;;;;;6306723;28;20048;-80
2023/06/30 02:43:20;;;;;;;17.92;12.38;;;;;;;;;;6289306;28;20044;-80
2023/06/30 02:46:23;;;;;;;14.88;11.38;;;;;;;;;;6300668;28;20052;-80
2023/06/30 02:49:25;;;;;;;15.52;11.30;;;;;;;;;;6306994;28;20055;-80
2023/06/30 02:52:27;;;;;;;15.30;11.68;;;;;;;;;;6292061;27;20044;-80
2023/06/30 02:55:32;;;;;;;16.55;11.55;;;;;;;;;;6301775;28;20391;-80
2023/06/30 02:58:36;;;;;;;17.02;12.43;;;;;;;;;;6308420;28;20044;-80
2023/06/30 03:01:41;;;;;;;15.45;11.85;;;;;;;;;;6286521;28;20128;-80
2023/06/30 03:04:43;;;;;;;16.38;12.02;;;;;;;;;;6299305;28;20407;-79
2023/06/30 03:07:45;;;;;;;19.08;12.80;;;;;;;;;;6313999;28;20422;-80
2023/06/30 03:10:49;;;;;;;18.13;13.25;;;;;;;;;;6303148;28;20045;-80
2023/06/30 03:13:52;;;;;;;19.73;13.38;;;;;;;;;;6302625;28;20045;-80
2023/06/30 03:16:55;;;;;;;20.85;14.48;;;;;;;;;;6284473;28;20616;-80
2023/06/30 03:19:56;;;;;;;18.45;12.25;;;;;;;;;;6304683;28;20421;-80
2023/06/30 03:22:58;;;;;;;19.13;13.38;;;;;;;;;;6311082;28;20343;-79
2023/06/30 03:26:00;;;;;;;20.23;13.15;;;;;;;;;;6289905;28;20635;-80
2023/06/30 03:29:01;;;;;;;22.17;13.85;;;;;;;;;;6316111;28;20502;-80
2023/06/30 03:32:06;;;;;;;20.52;13.95;;;;;;;;;;6308816;28;20048;-79
2023/06/30 03:35:08;;;;;;;20.33;14.88;;;;;;;;;;6306418;28;20563;-80
2023/06/30 03:38:10;;;;;;;23.35;14.10;;;;;;;;;;6307804;28;20043;-80
2023/06/30 03:41:12;;;;;;;19.10;13.02;;;;;;;;;;6295094;28;20044;-81
2023/06/30 03:44:14;;;;;;;18.85;12.93;;;;;;;;;;6294411;28;20044;-80
2023/06/30 03:47:16;;;;;;;20.05;12.88;;;;;;;;;;6304300;28;20050;-80
2023/06/30 03:50:18;;;;;;;20.00;13.02;;;;;;;;;;6306665;28;20059;-80
2023/06/30 03:53:21;;;;;;;18.30;12.18;;;;;;;;;;6294939;28;20043;-81
2023/06/30 03:56:23;;;;;;;21.23;14.05;;;;;;;;;;6308907;27;20460;-79
2023/06/30 03:59:24;;;;;;;19.73;13.57;;;;;;;;;;6300927;28;20071;-80
2023/06/30 04:02:26;;;;;;;19.60;13.75;;;;;;;;;;6303353;28;20649;-80
2023/06/30 04:05:28;;;;;;;21.90;14.30;;;;;;;;;;6306014;28;20043;-80
2023/06/30 04:08:30;;;;;;;21.10;14.93;;;;;;;;;;6314501;27;20512;-80
2023/06/30 04:11:32;;;;;;;21.20;14.40;;;;;;;;;;6295134;28;20040;-81
2023/06/30 04:14:33;;;;;;;24.50;15.05;;;;;;;;;;6305602;28;20097;-81
2023/06/30 04:17:35;;;;;;;22.73;15.60;;;;;;;;;;6305986;28;20047;-81
2023/06/30 04:20:37;;;;;;;24.53;16.27;;;;;;;;;;6312409;28;20048;-81
2023/06/30 04:23:40;;;;;;;24.77;15.52;;;;;;;;;;6306849;28;20626;-81
2023/06/30 04:26:41;;;;;;;28.40;17.65;;;;;;;;;;6307537;28;20086;-81
2023/06/30 04:29:43;;;;;;;24.80;16.60;;;;;;;;;;6303401;28;20047;-81
2023/06/30 04:32:45;;;;;;;20.70;14.68;;;;;;;;;;6306633;28;20472;-81
2023/06/30 04:35:47;;;;;;;21.38;14.70;;;;;;;;;;6313872;28;20047;-81
2023/06/30 04:38:49;;;;;;;22.60;14.65;;;;;;;;;;6291436;28;20041;-81
2023/06/30 04:41:52;;;;;;;22.77;16.38;;;;;;;;;;6305982;28;20555;-81
2023/06/30 04:44:53;;;;;;;24.85;16.75;;;;;;;;;;6305540;28;20052;-81
2023/06/30 04:47:55;;;;;;;28.90;18.70;;;;;;;;;;6303193;28;20194;-81
2023/06/30 04:50:57;;;;;;;29.48;20.17;;;;;;;;;;6307374;28;20430;-81
2023/06/30 04:53:59;;;;;;;30.20;19.50;;;;;;;;;;6307300;27;20045;-80
2023/06/30 04:57:00;;;;;;;28.35;18.90;;;;;;;;;;6310378;28;20043;-80
2023/06/30 05:00:02;;;;;;;25.48;16.23;;;;;;;;;;6299921;28;20131;-80
2023/06/30 05:03:04;;;;;;;22.47;14.50;;;;;;;;;;6303005;28;20052;-81
2023/06/30 05:06:06;;;;;;;25.42;15.95;;;;;;;;;;6312882;28;20565;-81
2023/06/30 05:09:08;;;;;;;34.95;19.33;;;;;;;;;;6302735;28;20040;-80
2023/06/30 05:12:10;;;;;;;24.33;13.80;;;;;;;;;;6305256;28;20044;-80
2023/06/30 05:15:12;;;;;;;24.42;12.88;;;;;;;;;;6304912;28;20457;-80
2023/06/30 05:18:14;;;;;;;20.98;12.35;;;;;;;;;;6306474;28;20044;-80
2023/06/30 05:21:16;;;;;;;12.57;7.80;;;;;;;;;;6304730;28;20044;-79
2023/06/30 05:24:17;;;;;;;12.32;7.30;;;;;;;;;;6296970;28;20055;-79
2023/06/30 05:27:19;;;;;;;11.55;6.75;;;;;;;;;;6298736;28;20074;-80
2023/06/30 05:30:21;;;;;;;11.32;6.03;;;;;;;;;;6302300;28;20048;-79
2023/06/30 05:33:23;;;;;;;7.63;4.15;;;;;;;;;;6304725;28;20051;-79
2023/06/30 05:36:24;;;;;;;7.72;4.18;;;;;;;;;;6299497;28;20056;-79
2023/06/30 05:39:26;;;;;;;5.78;2.95;;;;;;;;;;6302868;28;20046;-79
2023/06/30 05:42:28;;;;;;;4.22;2.50;;;;;;;;;;6305441;28;20429;-80
2023/06/30 05:45:29;;;;;;;3.95;2.00;;;;;;;;;;6299696;28;20036;-78
2023/06/30 05:48:31;;;;;;;3.90;2.00;;;;;;;;;;6299246;28;20045;-79
2023/06/30 05:51:33;;;;;;;6.63;1.75;;;;;;;;;;6306582;28;20101;-79
2023/06/30 05:54:35;;;;;;;4.95;1.90;;;;;;;;;;6304176;28;20055;-78
2023/06/30 05:57:37;;;;;;;4.43;1.58;;;;;;;;;;6319198;28;20498;-78
2023/06/30 06:00:39;;;;;;;3.88;1.75;;;;;;;;;;6309212;28;20048;-78
2023/06/30 06:03:40;;;;;;;4.20;1.23;;;;;;;;;;6308391;28;20075;-78
2023/06/30 06:06:42;;;;;;;3.30;1.27;;;;;;;;;;6304436;28;20055;-78
2023/06/30 06:09:44;;;;;;;3.78;1.17;;;;;;;;;;6276951;28;20209;-78
2023/06/30 06:12:46;;;;;;;3.20;1.00;;;;;;;;;;6299789;28;20044;-79
2023/06/30 06:15:48;;;;;;;3.90;1.10;;;;;;;;;;6293218;28;20064;-79
2023/06/30 06:18:50;;;;;;;3.08;1.08;;;;;;;;;;6281527;28;20047;-78
2023/06/30 06:21:52;;;;;;;2.40;0.70;;;;;;;;;;6290251;28;20032;-78
2023/06/30 06:24:53;;;;;;;5.20;0.98;;;;;;;;;;6273984;28;20160;-79
2023/06/30 06:27:55;;;;;;;7.18;0.90;;;;;;;;;;6270876;28;20215;-75
2023/06/30 06:30:57;;;;;;;6.93;0.90;;;;;;;;;;6297596;28;20048;-79
2023/06/30 06:33:59;;;;;;;2.63;0.70;;;;;;;;;;6297764;28;20045;-76
2023/06/30 06:37:01;;;;;;;1.77;0.53;;;;;;;;;;6316015;28;20532;-78
2023/06/30 06:40:04;;;;;;;0.88;0.50;;;;;;;;;;6318535;28;20410;-78
2023/06/30 06:43:05;;;;;;;1.55;0.52;;;;;;;;;;6300720;28;20045;-79
2023/06/30 06:46:07;;;;;;;1.45;0.52;;;;;;;;;;6301281;28;20041;-79
2023/06/30 06:49:09;;;;;;;1.70;0.60;;;;;;;;;;6302529;28;20049;-79
2023/06/30 06:52:11;;;;;;;3.65;0.90;;;;;;;;;;6305993;28;20048;-79
2023/06/30 06:55:13;;;;;;;1.30;0.93;;;;;;;;;;6289609;28;21104;-79
2023/06/30 06:58:15;;;;;;;3.17;0.70;;;;;;;;;;6300207;28;20040;-77
2023/06/30 07:01:17;;;;;;;1.52;0.70;;;;;;;;;;6311937;27;20456;-78
2023/06/30 07:04:19;;;;;;;1.33;0.75;;;;;;;;;;6308339;28;20043;-79
2023/06/30 07:07:21;;;;;;;3.00;1.05;;;;;;;;;;6308158;28;20044;-79
2023/06/30 07:10:23;;;;;;;2.22;1.00;;;;;;;;;;6305841;28;20054;-79
2023/06/30 07:13:25;;;;;;;1.65;0.90;;;;;;;;;;6299228;28;20071;-78
2023/06/30 07:16:27;;;;;;;1.55;0.60;;;;;;;;;;6303881;28;20055;-78
2023/06/30 07:19:29;;;;;;;1.52;0.80;;;;;;;;;;6306404;28;20064;-78
2023/06/30 07:22:32;;;;;;;1.17;0.90;;;;;;;;;;6306117;28;20052;-79
2023/06/30 07:25:34;;;;;;;;;;;;;;;;;;6307366;28;20051;-77
2023/06/30 07:28:36;;;;;;;1.35;0.60;;;;;;;;;;6305636;28;19920;-76
2023/06/30 07:31:38;;;;;;;0.85;0.70;;;;;;;;;;6310259;28;20054;-77
2023/06/30 07:34:39;;;;;;;2.38;1.00;;;;;;;;;;6292053;28;20056;-79
2023/06/30 07:37:42;;;;;;;2.13;0.82;;;;;;;;;;6312953;28;20101;-79
2023/06/30 07:40:44;;;;;;;3.38;1.02;;;;;;;;;;6310636;28;20051;-80
2023/06/30 07:43:59;;;;;;;1.85;0.73;;;;;;;;;;6309639;28;20042;-79
2023/06/30 07:47:00;;;;;;;1.85;0.70;;;;;;;;;;6298993;28;20040;-79
2023/06/30 07:50:09;;;;;;;1.10;0.63;;;;;;;;;;6302059;28;20518;-79
2023/06/30 07:53:10;;;;;;;1.33;0.60;;;;;;;;;;6305546;28;20040;-79
2023/06/30 07:56:12;;;;;;;1.63;0.80;;;;;;;;;;6307228;28;20048;-79
2023/06/30 07:59:14;;;;;;;0.85;0.70;;;;;;;;;;6286337;28;20051;-79
2023/06/30 08:02:17;;;;;;;1.90;1.10;;;;;;;;;;6276683;28;20413;-79
2023/06/30 08:05:19;;;;;;;2.58;0.90;;;;;;;;;;6287767;28;20406;-79
2023/06/30 08:08:21;;;;;;;1.40;0.80;;;;;;;;;;6287692;28;20052;-79
2023/06/30 08:11:22;;;;;;;4.97;1.05;;;;;;;;;;6281318;28;20536;-80
2023/06/30 08:14:24;;;;;;;1.88;0.77;;;;;;;;;;6276925;28;20559;-80
2023/06/30 08:17:26;;;;;;;1.33;0.70;;;;;;;;;;6285683;28;20044;-80
2023/06/30 08:20:48;;;;;;;1.15;0.60;;;;;;;;;;6303552;28;20075;-79
2023/06/30 08:23:50;;;;;;;5.63;1.08;;;;;;;;;;6308699;28;20139;-79
2023/06/30 08:26:52;;;;;;;1.40;0.65;;;;;;;;;;6307252;28;20119;-79
2023/06/30 08:29:53;;;;;;;2.00;0.60;;;;;;;;;;6309613;28;20044;-79
2023/06/30 08:32:55;;;;;;;1.65;0.70;;;;;;;;;;6283753;28;20047;-80
2023/06/30 08:35:58;;;;;;;3.55;0.90;;;;;;;;;;6309472;28;20052;-79
2023/06/30 08:39:00;;;;;;;1.67;0.65;;;;;;;;;;6305560;28;20496;-79
2023/06/30 08:42:03;;;;;;;1.50;0.90;;;;;;;;;;6302632;28;20037;-79
2023/06/30 08:45:07;;;;;;;5.13;1.20;;;;;;;;;;6292902;28;20118;-80
2023/06/30 08:48:09;;;;;;;3.90;1.45;;;;;;;;;;6302678;28;20060;-78
2023/06/30 08:51:11;;;;;;;3.08;1.80;;;;;;;;;;6299780;28;20055;-78
2023/06/30 08:54:15;;;;;;;3.83;1.42;;;;;;;;;;6279378;28;20045;-80
2023/06/30 08:57:20;;;;;;;2.70;1.52;;;;;;;;;;6271657;28;20048;-80
2023/06/30 09:00:25;;;;;;;2.05;1.63;;;;;;;;;;6296798;28;20044;-79
2023/06/30 09:03:28;;;;;;;2.67;1.95;;;;;;;;;;6280399;28;20046;-78
2023/06/30 09:06:32;;;;;;;4.55;2.05;;;;;;;;;;6306731;28;20044;-78
2023/06/30 09:09:42;;;;;;;2.80;2.50;;;;;;;;;;6305437;28;20043;-80
2023/06/30 09:12:46;;;;;;;2.45;2.25;;;;;;;;;;6312837;28;20418;-80
2023/06/30 09:15:49;;;;;;;3.58;2.78;;;;;;;;;;6297870;28;20040;-78
2023/06/30 09:18:51;;;;;;;3.25;2.92;;;;;;;;;;6303446;28;20040;-81
2023/06/30 09:21:53;;;;;;;4.38;2.70;;;;;;;;;;6301496;28;20405;-79
2023/06/30 09:24:55;;;;;;;3.90;3.08;;;;;;;;;;6305794;28;20494;-78
2023/06/30 09:27:57;;;;;;;4.30;2.58;;;;;;;;;;6308526;28;20048;-79
2023/06/30 09:30:58;;;;;;;4.88;2.85;;;;;;;;;;6297625;28;20494;-79
2023/06/30 09:34:12;;;;;;;3.63;2.90;;;;;;;;;;6291850;28;20036;-78
2023/06/30 09:37:14;;;;;;;;;;;;;;;;;;6310269;28;20048;-77
2023/06/30 09:40:23;;;;;;;4.53;2.80;;;;;;;;;;6290651;28;19927;-78
2023/06/30 09:43:26;;;;;;;6.15;2.70;;;;;;;;;;6298902;28;20043;-78
2023/06/30 09:46:28;;;;;;;3.85;2.90;;;;;;;;;;6309620;28;20047;-80
2023/06/30 09:49:32;;;;;;;3.30;2.85;;;;;;;;;;6299960;28;20054;-75
2023/06/30 09:52:34;;;;;;;6.07;4.32;;;;;;;;;;6303210;28;20050;-76
2023/06/30 09:55:47;;;;;;;4.72;3.25;;;;;;;;;;6301641;28;20063;-76
2023/06/30 09:58:54;;;;;;;;;;;;;;;;;;6293855;28;20044;-73
2023/06/30 10:01:56;;;;;;;6.60;3.83;;;;;;;;;;6265056;28;19935;-77
2023/06/30 10:04:58;;;;;;;7.57;4.20;;;;;;;;;;6279292;28;20044;-76
2023/06/30 10:08:01;;;;;;;5.18;3.55;;;;;;;;;;6314085;28;20048;-76
2023/06/30 10:11:03;;;;;;;5.72;3.78;;;;;;;;;;6281557;28;20066;-77
2023/06/30 10:14:05;;;;;;;6.88;4.10;;;;;;;;;;6302375;28;20170;-81
2023/06/30 10:17:08;;;;;;;7.33;4.03;;;;;;;;;;6273078;28;20040;-83
2023/06/30 10:20:10;;;;;;;;;;;;;;;;;;6290412;27;20107;-81
2023/06/30 10:23:14;;;;;;;4.25;3.75;;;;;;;;;;6301972;28;19927;-78
2023/06/30 10:26:19;;;;;;;5.45;4.00;;;;;;;;;;6301916;27;20063;-79
2023/06/30 10:29:22;;;;;;;4.40;4.00;;;;;;;;;;6298783;28;20051;-78
2023/06/30 10:32:24;;;;;;;8.70;4.20;;;;;;;;;;6302365;28;20173;-79
2023/06/30 10:35:27;;;;;;;10.90;4.60;;;;;;;;;;6302348;28;20048;-79
2023/06/30 10:38:37;;;;;;;8.23;4.47;;;;;;;;;;6290368;28;20179;-78
2023/06/30 10:41:48;;;;;;;6.45;3.97;;;;;;;;;;6302655;28;20044;-79
2023/06/30 10:44:50;;;;;;;6.63;3.90;;;;;;;;;;6295577;28;20054;-79
2023/06/30 10:47:54;;;;;;;5.50;3.70;;;;;;;;;;6308932;28;20076;-80
2023/06/30 10:51:03;;;;;;;5.68;3.80;;;;;;;;;;6315312;28;20044;-79
2023/06/30 10:54:04;;;;;;;4.93;3.58;;;;;;;;;;6309606;28;20048;-80
2023/06/30 10:57:11;;;;;;;6.13;3.63;;;;;;;;;;6316688;28;20040;-80
2023/06/30 11:00:14;;;;;;;5.78;3.67;;;;;;;;;;6306444;28;20044;-80
2023/06/30 11:03:16;;;;;;;4.80;3.40;;;;;;;;;;6307027;28;20044;-79
2023/06/30 11:06:21;;;;;;;5.63;4.10;;;;;;;;;;6315144;28;20055;-78
2023/06/30 11:09:23;;;;;;;8.68;3.90;;;;;;;;;;6311634;28;20056;-77
2023/06/30 11:12:27;;;;;;;6.57;4.07;;;;;;;;;;6291824;28;20036;-77
2023/06/30 11:15:42;;;;;;;5.43;3.85;;;;;;;;;;6295813;28;20051;-77
2023/06/30 11:18:59;;;;;;;5.05;4.00;;;;;;;;;;6293795;28;20498;-78
2023/06/30 11:22:21;;;;;;;5.63;3.83;;;;;;;;;;6292655;28;20489;-77
2023/06/30 11:25:23;;;;;;;4.57;3.90;;;;;;;;;;6297555;28;20426;-77
2023/06/30 11:28:26;;;;;;;7.40;4.43;;;;;;;;;;6294993;28;20043;-77
2023/06/30 11:31:36;;;;;;;6.10;4.38;;;;;;;;;;6298786;28;20055;-79
2023/06/30 11:34:37;;;;;;;4.63;4.07;;;;;;;;;;6273678;28;20052;-79
2023/06/30 11:37:46;;;;;;;6.50;4.18;;;;;;;;;;6312332;28;20048;-78
2023/06/30 11:40:49;;;;;;;5.95;3.75;;;;;;;;;;6304491;27;20040;-79
2023/06/30 11:43:56;;;;;;;4.72;3.22;;;;;;;;;;6310623;27;20052;-80
2023/06/30 11:46:58;;;;;;;4.38;3.17;;;;;;;;;;6319455;28;20043;-79
2023/06/30 11:50:10;;;;;;;4.38;2.88;;;;;;;;;;6315304;28;20040;-79
2023/06/30 11:53:12;;;;;;;6.47;3.58;;;;;;;;;;6323418;28;20044;-79
2023/06/30 11:56:17;;;;;;;5.88;3.42;;;;;;;;;;6312353;28;20052;-80
2023/06/30 11:59:20;;;;;;;4.45;3.22;;;;;;;;;;6313092;28;20041;-80
2023/06/30 12:02:22;;;;;;;3.78;3.10;;;;;;;;;;6312865;28;20067;-80
2023/06/30 12:05:25;;;;;;;5.20;2.60;;;;;;;;;;6309328;28;20048;-80
2023/06/30 12:08:30;;;;;;;3.47;2.72;;;;;;;;;;6288259;28;20120;-77
2023/06/30 12:11:32;;;;;;;4.95;2.40;;;;;;;;;;6308197;28;20525;-78
2023/06/30 12:14:40;;;;;;;4.47;2.60;;;;;;;;;;6307618;28;20040;-81
2023/06/30 12:17:43;;;;;;;3.45;2.50;;;;;;;;;;6323013;28;20131;-81
2023/06/30 12:20:45;;;;;;;2.50;2.30;;;;;;;;;;6311517;28;20134;-81
2023/06/30 12:23:47;;;;;;;2.22;1.90;;;;;;;;;;6292803;28;20053;-81
2023/06/30 12:26:50;;;;;;;6.63;2.38;;;;;;;;;;6302652;28;20062;-82
2023/06/30 12:29:52;;;;;;;2.60;1.88;;;;;;;;;;6343029;27;20323;-81
2023/06/30 12:32:58;;;;;;;2.33;2.10;;;;;;;;;;6313362;28;20528;-82
2023/06/30 12:36:07;;;;;;;3.83;2.03;;;;;;;;;;6312305;28;20075;-82
2023/06/30 12:39:09;;;;;;;3.83;1.98;;;;;;;;;;6310630;28;20505;-81
2023/06/30 12:42:13;;;;;;;2.55;2.00;;;;;;;;;;6309494;28;20056;-82
2023/06/30 12:45:16;;;;;;;2.03;1.70;;;;;;;;;;6309008;28;20450;-82
2023/06/30 12:48:18;;;;;;;2.17;1.70;;;;;;;;;;6316082;28;20040;-83
2023/06/30 12:51:19;;;;;;;4.67;1.80;;;;;;;;;;6316005;28;20498;-82
2023/06/30 12:54:21;;;;;;;1.95;1.77;;;;;;;;;;6309531;28;21053;-81
2023/06/30 12:57:23;;;;;;;2.35;1.80;;;;;;;;;;6312131;28;20052;-81
2023/06/30 13:00:25;;;;;;;3.33;1.40;;;;;;;;;;6316956;28;20044;-82
2023/06/30 13:03:32;;;;;;;2.28;1.77;;;;;;;;;;6319348;28;20442;-82
2023/06/30 13:06:34;;;;;;;3.10;1.63;;;;;;;;;;6320375;28;20044;-82
2023/06/30 13:09:36;;;;;;;3.22;1.55;;;;;;;;;;6317449;28;20070;-82
2023/06/30 13:12:40;;;;;;;3.63;1.70;;;;;;;;;;6315786;28;20048;-80
2023/06/30 13:15:42;;;;;;;1.70;1.52;;;;;;;;;;6316912;28;20062;-81
2023/06/30 13:18:44;;;;;;;5.35;1.70;;;;;;;;;;6312471;28;20766;-80
2023/06/30 13:21:46;;;;;;;3.38;1.60;;;;;;;;;;6315640;28;20054;-82
2023/06/30 13:24:49;;;;;;;4.38;1.73;;;;;;;;;;6316373;28;20044;-82
2023/06/30 13:27:51;;;;;;;4.85;1.52;;;;;;;;;;6322470;28;20040;-83
2023/06/30 13:30:53;;;;;;;2.90;1.40;;;;;;;;;;6315840;28;20063;-82
2023/06/30 13:33:54;;;;;;;3.80;1.45;;;;;;;;;;6317624;28;20043;-82
2023/06/30 13:36:56;;;;;;;2.53;1.80;;;;;;;;;;6318245;28;20097;-84
2023/06/30 13:39:58;;;;;;;3.58;1.63;;;;;;;;;;6315290;28;20522;-84
2023/06/30 13:42:59;;;;;;;3.35;1.60;;;;;;;;;;6308185;28;20032;-84
2023/06/30 13:46:01;;;;;;;2.38;1.30;;;;;;;;;;6309744;28;20896;-84
2023/06/30 13:49:03;;;;;;;2.28;1.17;;;;;;;;;;6315397;28;20067;-84
2023/06/30 13:52:05;;;;;;;4.05;1.25;;;;;;;;;;6312834;28;20083;-84
2023/06/30 13:55:08;;;;;;;2.47;1.23;;;;;;;;;;6316819;28;20158;-86
2023/06/30 13:58:09;;;;;;;2.03;1.35;;;;;;;;;;6287112;27;20083;-85
2023/06/30 14:01:11;;;;;;;2.50;1.30;;;;;;;;;;6322909;27;20123;-85
2023/06/30 14:04:13;;;;;;;1.53;1.20;;;;;;;;;;6286184;28;20120;-85
2023/06/30 14:07:15;;;;;;;;;;;;;;;;;;6309339;28;20501;-86
2023/06/30 14:10:17;;;;;;;2.78;1.55;;;;;;;;;;6311806;28;19942;-85
2023/06/30 14:13:20;;;;;;;2.15;1.23;;;;;;;;;;6313008;28;20051;-88
2023/06/30 14:16:22;;;;;;;3.42;1.42;;;;;;;;;;6290416;28;20075;-87
2023/06/30 14:19:23;;;;;;;2.97;1.40;;;;;;;;;;6292330;28;20056;-88
2023/06/30 14:22:25;;;;;;;2.13;1.30;;;;;;;;;;6289131;28;20048;-85
2023/06/30 14:25:27;;;;;;;3.30;1.30;;;;;;;;;;6292269;28;20039;-84
2023/06/30 14:28:28;;;;;;;2.80;1.40;;;;;;;;;;6307229;28;20060;-85
2023/06/30 14:31:30;;;;;;;2.07;1.30;;;;;;;;;;6309944;28;20056;-86
2023/06/30 14:34:33;;;;;;;2.90;1.40;;;;;;;;;;6315805;28;20117;-86
2023/06/30 14:37:35;;;;;;;3.92;1.52;;;;;;;;;;6326583;27;20040;-85
2023/06/30 14:40:36;;;;;;;2.28;1.13;;;;;;;;;;6327107;28;20047;-86
2023/06/30 14:43:38;;;;;;;3.90;1.27;;;;;;;;;;6307887;27;20569;-86
2023/06/30 14:46:40;;;;;;;2.07;1.13;;;;;;;;;;6297596;28;20055;-85
2023/06/30 14:49:42;;;;;;;1.52;1.10;;;;;;;;;;6274677;28;20161;-85
2023/06/30 14:52:43;;;;;;;1.73;1.20;;;;;;;;;;6284592;28;20047;-85
2023/06/30 14:55:51;;;;;;;2.95;1.40;;;;;;;;;;6280742;28;21564;-85
2023/06/30 14:58:54;;;;;;;2.95;1.50;;;;;;;;;;6300129;28;20063;-85
2023/06/30 15:01:56;;;;;;;2.00;1.20;;;;;;;;;;6314432;28;20045;-85
2023/06/30 15:04:58;;;;;;;2.50;1.40;;;;;;;;;;6319021;28;20104;-85
2023/06/30 15:08:00;;;;;;;;;;;;;;;;;;6322090;28;20046;-85
2023/06/30 15:11:03;;;;;;;2.83;1.17;;;;;;;;;;6317130;28;19953;-88
2023/06/30 15:14:05;;;;;;;1.88;0.93;;;;;;;;;;6308629;28;20052;-84
2023/06/30 15:17:08;;;;;;;1.92;1.30;;;;;;;;;;6321779;28;20052;-85
2023/06/30 15:20:10;;;;;;;2.97;1.30;;;;;;;;;;6314698;28;20051;-88
2023/06/30 15:23:12;;;;;;;1.33;1.10;;;;;;;;;;6302645;28;20047;-87
2023/06/30 15:26:14;;;;;;;2.90;1.25;;;;;;;;;;6314220;28;20062;-85
2023/06/30 15:29:15;;;;;;;2.88;1.25;;;;;;;;;;6318335;28;20063;-87
2023/06/30 15:32:18;;;;;;;2.00;1.20;;;;;;;;;;6297715;28;20044;-85
2023/06/30 15:35:20;;;;;;;4.35;1.30;;;;;;;;;;6310902;28;20784;-86
2023/06/30 15:38:22;;;;;;;3.28;1.15;;;;;;;;;;6287956;28;20044;-85
2023/06/30 15:41:23;;;;;;;3.95;1.08;;;;;;;;;;6271852;28;20048;-87
2023/06/30 15:44:28;;;;;;;1.70;1.00;;;;;;;;;;6254743;28;20479;-87
2023/06/30 15:47:46;;;;;;;2.20;1.10;;;;;;;;;;6277249;28;20044;-87
2023/06/30 15:50:51;;;;;;;2.63;1.00;;;;;;;;;;6300413;28;20048;-86
2023/06/30 15:53:52;;;;;;;1.85;1.27;;;;;;;;;;6331576;27;20120;-86
2023/06/30 15:56:54;;;;;;;4.60;1.23;;;;;;;;;;6314058;28;20060;-86
2023/06/30 15:59:56;;;;;;;5.20;1.20;;;;;;;;;;6297405;28;20037;-86
2023/06/30 16:02:58;;;;;;;1.90;1.07;;;;;;;;;;6298647;28;20406;-86
2023/06/30 16:06:00;;;;;;;2.17;1.00;;;;;;;;;;6289017;28;20037;-85
2023/06/30 16:09:04;;;;;;;2.08;1.27;;;;;;;;;;6288446;28;20055;-84
2023/06/30 16:12:08;;;;;;;2.78;1.20;;;;;;;;;;6321510;28;20040;-88
2023/06/30 16:15:09;;;;;;;2.08;1.08;;;;;;;;;;6305856;28;20035;-88
2023/06/30 16:18:11;;;;;;;2.37;1.37;;;;;;;;;;6326484;28;20056;-85
2023/06/30 16:21:13;;;;;;;2.05;1.30;;;;;;;;;;6315048;28;20051;-85
2023/06/30 16:24:17;;;;;;;1.47;1.00;;;;;;;;;;6318910;28;20043;-84
2023/06/30 16:27:18;;;;;;;2.10;1.40;;;;;;;;;;6315391;28;20040;-89
2023/06/30 16:30:25;;;;;;;1.73;1.50;;;;;;;;;;6320084;28;20052;-86
2023/06/30 16:33:31;;;;;;;2.55;1.45;;;;;;;;;;6317326;28;20048;-87
2023/06/30 16:36:33;;;;;;;1.65;1.40;;;;;;;;;;6300512;28;20044;-85
2023/06/30 16:39:34;;;;;;;2.70;1.42;;;;;;;;;;6309424;28;20054;-85
2023/06/30 16:42:39;;;;;;;2.58;1.40;;;;;;;;;;6331800;28;20044;-87
2023/06/30 16:45:41;;;;;;;3.05;1.40;;;;;;;;;;6313387;28;20108;-83
2023/06/30 16:48:43;;;;;;;2.35;1.35;;;;;;;;;;6315255;28;20048;-84
2023/06/30 16:51:44;;;;;;;2.80;1.50;;;;;;;;;;6319500;28;20068;-85
2023/06/30 16:54:46;;;;;;;2.63;1.30;;;;;;;;;;6318472;28;20060;-86
2023/06/30 16:57:48;;;;;;;1.65;1.20;;;;;;;;;;6319976;28;20052;-85
2023/06/30 17:00:50;;;;;;;2.23;1.30;;;;;;;;;;6284158;28;20122;-84
2023/06/30 17:03:52;;;;;;;;;;;;;;;;;;6290141;28;20044;-85
2023/06/30 17:06:54;;;;;;;2.33;1.17;;;;;;;;;;6303250;28;19931;-85
2023/06/30 17:09:55;;;;;;;1.83;1.27;;;;;;;;;;6307825;28;20040;-84
2023/06/30 17:12:57;;;;;;;4.28;1.50;;;;;;;;;;6314203;28;20654;-83
2023/06/30 17:15:59;;;;;;;1.70;1.13;;;;;;;;;;6290102;28;20048;-89
2023/06/30 17:19:01;;;;;;;1.83;1.40;;;;;;;;;;6309520;28;20044;-83
2023/06/30 17:22:03;;;;;;;2.93;1.70;;;;;;;;;;6313602;28;20040;-81
2023/06/30 17:25:05;;;;;;;1.90;1.60;;;;;;;;;;6325833;28;20048;-80
2023/06/30 17:28:08;;;;;;;2.63;1.50;;;;;;;;;;6302669;28;20036;-81
2023/06/30 17:31:10;;;;;;;3.00;1.80;;;;;;;;;;6308219;28;20105;-80
2023/06/30 17:34:11;;;;;;;3.70;1.80;;;;;;;;;;6315321;28;20113;-81
2023/06/30 17:37:13;;;;;;;5.15;1.98;;;;;;;;;;6314914;28;20055;-81
2023/06/30 17:40:15;;;;;;;3.40;1.83;;;;;;;;;;6308029;28;20040;-81
2023/06/30 17:43:17;;;;;;;5.95;2.03;;;;;;;;;;6306842;28;20051;-81
2023/06/30 17:46:19;;;;;;;2.70;1.95;;;;;;;;;;6318508;28;20109;-80
2023/06/30 17:49:30;;;;;;;2.67;2.00;;;;;;;;;;6314380;28;20529;-80
2023/06/30 17:52:32;;;;;;;2.95;2.13;;;;;;;;;;6309905;28;20151;-80
2023/06/30 17:55:33;;;;;;;2.35;1.70;;;;;;;;;;6316602;28;20052;-80
2023/06/30 17:58:35;;;;;;;3.03;2.00;;;;;;;;;;6326240;28;20309;-81
2023/06/30 18:01:37;;;;;;;3.95;2.10;;;;;;;;;;6317441;28;20048;-82
2023/06/30 18:04:39;;;;;;;2.15;1.75;;;;;;;;;;6313300;28;20051;-81
2023/06/30 18:07:41;;;;;;;2.00;1.87;;;;;;;;;;6318473;28;20105;-81
2023/06/30 18:10:43;;;;;;;2.80;2.17;;;;;;;;;;6311152;28;20120;-80